Le Ponant — FGZZ — position and weather

sailwx.info

Track history (hours):
 
Tides and Currents Weather Stations Pressure Air Temp Water Temp Dewpoint Dewpoint Depression Visibility Wind Speed Wind Dir Waves Ship Positions

Le Ponant

Operator: Compangy des Iles du Ponant

Last reported at 2016-Aug-30 13:30 UTC. Time now 2016-Aug-30 20:42 UTC.
Position N 42°48' E 010°21'.

Length 84 m; draft 4.2 m.

Type: Passenger vessel. MMSI: 227186000.

Date/timePositionNaut miles runAvg speedWind from/ knotsBaromVisibWave heightAir tempDewpointWater temp
2016-Aug-30 13:30N 42°48' E 010°21'25 2.8
2016-Aug-30 04:20N 43°07' E 009°57'1810.3
2016-Aug-30 02:33N 43°13' E 009°33'1010.5
2016-Aug-30 01:33N 43°16' E 009°20'1111.2
2016-Aug-30 00:33N 43°19' E 009°05'1110.6
2016-Aug-29 23:33N 43°22' E 008°51'6410.4
2016-Aug-29 17:26N 43°38' E 007°26'7 7.9
2016-Aug-29 16:33N 43°42' E 007°17'1 0.1
2016-Aug-29 05:33N 43°41' E 007°16'8 7.8
2016-Aug-29 04:33N 43°35' E 007°24'8211.0
2016-Aug-28 21:07N 42°43' E 008°50'5 6.5
2016-Aug-28 20:25N 42°40' E 008°55'2 1.1
2016-Aug-28 18:29N 42°38' E 008°57'0 0.0
2016-Aug-28 17:14N 42°38' E 008°57'0 0.0
2016-Aug-28 16:14N 42°38' E 008°57'0 0.0
2016-Aug-28 15:17N 42°38' E 008°57'0 0.0
2016-Aug-28 14:26N 42°38' E 008°57'0 0.0
2016-Aug-28 10:20N 42°38' E 008°57'0 0.0
2016-Aug-28 09:20N 42°38' E 008°57'0 0.0
2016-Aug-28 08:29N 42°38' E 008°57'0 0.0
2016-Aug-28 06:23N 42°38' E 008°57'4 2.1
2016-Aug-28 04:29N 42°42' E 008°54'9 8.7
2016-Aug-28 03:30N 42°39' E 008°43'9 8.6
2016-Aug-28 02:27N 42°35' E 008°32'  
2016-Aug-22 22:29N 43°05' E 007°49'8 8.9
2016-Aug-22 21:33N 43°12' E 007°42'9 8.6
2016-Aug-22 20:33N 43°19' E 007°36'8 8.4
2016-Aug-22 19:33N 43°26' E 007°30'9 8.4
2016-Aug-22 18:30N 43°33' E 007°22'8 8.7
2016-Aug-22 17:32N 43°40' E 007°17'1 1.3
2016-Aug-22 16:27N 43°42' E 007°17'0 0.0
2016-Aug-22 15:33N 43°42' E 007°17'0 0.0
2016-Aug-22 13:27N 43°42' E 007°17'0 0.0
2016-Aug-22 11:33N 43°42' E 007°17'0 0.0
2016-Aug-22 09:27N 43°42' E 007°17'0 0.0
2016-Aug-22 08:21N 43°42' E 007°17'0 0.0
2016-Aug-22 07:33N 43°42' E 007°17'0 0.0
2016-Aug-22 06:33N 43°42' E 007°17'0 0.5
2016-Aug-22 05:34N 43°41' E 007°17'9 8.8
2016-Aug-22 04:32N 43°34' E 007°25'2110.5
2016-Aug-22 02:30N 43°20' E 007°47'1010.9
2016-Aug-22 01:33N 43°14' E 007°58'48 2.3
2016-Aug-21 04:30N 42°38' E 008°42'18 9.1
2016-Aug-21 02:33N 42°23' E 008°29'  
Track history (hours):
 
Tides and Currents Weather Stations Pressure Air Temp Water Temp Dewpoint Dewpoint Depression Visibility Wind Speed Wind Dir Waves Ship Positions

Le Ponant

Operator: Compangy des Iles du Ponant

Last reported at 2016-Aug-30 13:30 UTC. Time now 2016-Aug-30 20:42 UTC.
Position N 42°48' E 010°21'.

Length 84 m; draft 4.2 m.

Type: Passenger vessel. MMSI: 227186000.

Date/timePositionNaut miles runAvg speedWind from/ knotsBaromVisibWave heightAir tempDewpointWater temp
2016-Aug-30 13:30N 42°48' E 010°21'25 2.8
2016-Aug-30 04:20N 43°07' E 009°57'1810.3
2016-Aug-30 02:33N 43°13' E 009°33'1010.5
2016-Aug-30 01:33N 43°16' E 009°20'1111.2
2016-Aug-30 00:33N 43°19' E 009°05'1110.6
2016-Aug-29 23:33N 43°22' E 008°51'6410.4
2016-Aug-29 17:26N 43°38' E 007°26'7 7.9
2016-Aug-29 16:33N 43°42' E 007°17'1 0.1
2016-Aug-29 05:33N 43°41' E 007°16'8 7.8
2016-Aug-29 04:33N 43°35' E 007°24'8211.0
2016-Aug-28 21:07N 42°43' E 008°50'5 6.5
2016-Aug-28 20:25N 42°40' E 008°55'2 1.1
2016-Aug-28 18:29N 42°38' E 008°57'0 0.0
2016-Aug-28 17:14N 42°38' E 008°57'0 0.0
2016-Aug-28 16:14N 42°38' E 008°57'0 0.0
2016-Aug-28 15:17N 42°38' E 008°57'0 0.0
2016-Aug-28 14:26N 42°38' E 008°57'0 0.0
2016-Aug-28 10:20N 42°38' E 008°57'0 0.0
2016-Aug-28 09:20N 42°38' E 008°57'0 0.0
2016-Aug-28 08:29N 42°38' E 008°57'0 0.0
2016-Aug-28 06:23N 42°38' E 008°57'4 2.1
2016-Aug-28 04:29N 42°42' E 008°54'9 8.7
2016-Aug-28 03:30N 42°39' E 008°43'9 8.6
2016-Aug-28 02:27N 42°35' E 008°32'  
2016-Aug-22 22:29N 43°05' E 007°49'8 8.9
2016-Aug-22 21:33N 43°12' E 007°42'9 8.6
2016-Aug-22 20:33N 43°19' E 007°36'8 8.4
2016-Aug-22 19:33N 43°26' E 007°30'9 8.4
2016-Aug-22 18:30N 43°33' E 007°22'8 8.7
2016-Aug-22 17:32N 43°40' E 007°17'1 1.3
2016-Aug-22 16:27N 43°42' E 007°17'0 0.0
2016-Aug-22 15:33N 43°42' E 007°17'0 0.0
2016-Aug-22 13:27N 43°42' E 007°17'0 0.0
2016-Aug-22 11:33N 43°42' E 007°17'0 0.0
2016-Aug-22 09:27N 43°42' E 007°17'0 0.0
2016-Aug-22 08:21N 43°42' E 007°17'0 0.0
2016-Aug-22 07:33N 43°42' E 007°17'0 0.0
2016-Aug-22 06:33N 43°42' E 007°17'0 0.5
2016-Aug-22 05:34N 43°41' E 007°17'9 8.8
2016-Aug-22 04:32N 43°34' E 007°25'2110.5
2016-Aug-22 02:30N 43°20' E 007°47'1010.9
2016-Aug-22 01:33N 43°14' E 007°58'48 2.3
2016-Aug-21 04:30N 42°38' E 008°42'18 9.1
2016-Aug-21 02:33N 42°23' E 008°29'  

Dump ship's entire track history